createdAt,value
2022-12-11T00:01:21.443Z,19.93
2022-12-11T00:03:44.242Z,21.30
2022-12-11T00:06:10.700Z,20.40
2022-12-11T00:08:32.828Z,20.10
2022-12-11T00:10:54.923Z,20.40
2022-12-11T00:13:17.219Z,19.83
2022-12-11T00:15:39.448Z,19.93
2022-12-11T00:18:01.669Z,20.43
2022-12-11T00:20:23.863Z,21.90
2022-12-11T00:22:45.996Z,19.87
2022-12-11T00:25:09.822Z,19.97
2022-12-11T00:27:32.097Z,21.25
2022-12-11T00:29:54.743Z,20.00
2022-12-11T00:32:17.086Z,20.60
2022-12-11T00:34:39.266Z,20.30
2022-12-11T00:37:02.424Z,19.20
2022-12-11T00:39:24.753Z,22.93
2022-12-11T00:41:46.960Z,19.00
2022-12-11T00:44:09.224Z,20.23
2022-12-11T00:46:31.629Z,21.97
2022-12-11T00:48:53.867Z,19.20
2022-12-11T00:51:18.271Z,20.53
2022-12-11T00:56:02.454Z,21.40
2022-12-11T00:58:24.696Z,20.20
2022-12-11T01:00:48.355Z,22.57
2022-12-11T01:03:14.376Z,20.40
2022-12-11T01:05:36.813Z,21.17
2022-12-11T01:07:59.026Z,19.33
2022-12-11T01:10:24.239Z,21.30
2022-12-11T01:12:46.587Z,19.33
2022-12-11T01:15:09.415Z,22.13
2022-12-11T01:17:31.732Z,20.87
2022-12-11T01:19:55.095Z,20.90
2022-12-11T01:22:17.196Z,21.13
2022-12-11T01:24:39.243Z,21.30
2022-12-11T01:27:01.287Z,21.00
2022-12-11T01:29:23.364Z,21.87
2022-12-11T01:31:45.327Z,23.37
2022-12-11T01:34:07.370Z,24.30
2022-12-11T01:36:29.228Z,22.03
2022-12-11T01:38:51.536Z,22.40
2022-12-11T01:41:14.286Z,21.30
2022-12-11T01:44:08.476Z,20.97
2022-12-11T01:46:34.244Z,21.97
2022-12-11T01:48:57.986Z,22.43
2022-12-11T01:51:21.329Z,24.25
2022-12-11T01:53:55.130Z,22.53
2022-12-11T01:56:18.060Z,22.42
2022-12-11T01:59:07.173Z,24.13
2022-12-11T02:01:42.524Z,22.67
2022-12-11T02:04:07.675Z,21.77
2022-12-11T02:06:40.010Z,22.73
2022-12-11T02:09:05.602Z,23.60
2022-12-11T02:11:42.570Z,23.77
2022-12-11T02:14:19.262Z,21.50
2022-12-11T02:16:59.127Z,22.63
2022-12-11T02:19:48.073Z,24.10
2022-12-11T02:22:22.678Z,23.43
2022-12-11T02:25:20.852Z,24.42
2022-12-11T02:27:57.671Z,22.30
2022-12-11T02:30:19.927Z,21.97
2022-12-11T02:32:59.227Z,22.47
2022-12-11T02:35:33.547Z,24.17
2022-12-11T02:38:07.988Z,24.05
2022-12-11T02:40:35.413Z,22.38
2022-12-11T02:43:04.841Z,25.40
2022-12-11T02:45:29.036Z,23.73
2022-12-11T02:47:52.897Z,22.00
2022-12-11T02:50:20.590Z,21.35
2022-12-11T02:52:44.931Z,23.97
2022-12-11T02:55:12.901Z,23.02
2022-12-11T02:57:50.510Z,24.27
2022-12-11T03:00:13.654Z,24.10
2022-12-11T04:51:54.691Z,19.10
2022-12-11T04:54:23.461Z,21.00
2022-12-11T04:56:45.703Z,15.53
2022-12-11T04:59:08.218Z,17.73
2022-12-11T05:01:30.585Z,17.90
2022-12-11T05:03:53.011Z,15.33
2022-12-11T05:06:15.969Z,14.40
2022-12-11T05:08:41.387Z,14.60
2022-12-11T05:11:10.461Z,13.63
2022-12-11T05:13:33.035Z,14.67
2022-12-11T05:15:56.832Z,13.60
2022-12-11T05:18:19.313Z,13.32
2022-12-11T07:26:22.884Z,11.47
2022-12-11T07:28:45.664Z,10.57
2022-12-11T07:31:11.206Z,11.37
2022-12-11T07:33:34.416Z,14.67
2022-12-11T07:35:57.010Z,13.80
2022-12-11T07:38:19.344Z,13.80
2022-12-11T07:40:41.892Z,13.10
2022-12-11T07:43:04.472Z,14.00
2022-12-11T07:45:27.027Z,13.30
2022-12-11T07:47:49.435Z,13.73
2022-12-11T09:26:55.265Z,14.30
2022-12-11T09:29:17.531Z,14.50
2022-12-11T09:31:40.014Z,14.93
2022-12-11T09:34:06.967Z,13.73
2022-12-11T09:36:30.044Z,13.73
2022-12-11T09:38:52.897Z,13.63
2022-12-11T09:41:20.901Z,14.27
2022-12-11T09:43:52.867Z,13.30
2022-12-11T09:46:17.585Z,13.37
2022-12-11T09:48:45.530Z,12.93
2022-12-11T09:51:37.679Z,14.40
2022-12-11T09:54:04.885Z,13.93
2022-12-11T09:56:41.955Z,13.27
2022-12-11T09:59:17.041Z,12.07
2022-12-11T10:01:59.787Z,13.53
2022-12-11T10:04:50.335Z,12.87
2022-12-11T10:07:31.087Z,13.40
2022-12-11T10:10:12.032Z,11.80
2022-12-11T10:13:06.798Z,12.80
2022-12-11T10:15:40.434Z,13.88
2022-12-11T10:18:10.193Z,12.53
2022-12-11T10:20:40.827Z,14.03
2022-12-11T10:23:08.298Z,14.57
2022-12-11T10:25:40.833Z,13.23
2022-12-11T10:28:16.873Z,14.00
2022-12-11T10:30:49.235Z,13.07
2022-12-11T10:33:11.931Z,13.00
2022-12-11T10:36:00.966Z,12.37
2022-12-11T10:38:42.903Z,12.13
2022-12-11T10:41:21.174Z,13.07
2022-12-11T10:43:50.801Z,13.30
2022-12-11T10:46:22.696Z,13.03
2022-12-11T10:49:02.794Z,12.47
2022-12-11T10:51:38.627Z,13.37
2022-12-11T10:54:32.827Z,13.40
2022-12-11T10:56:57.131Z,12.67
2022-12-11T10:59:50.943Z,13.32
2022-12-11T11:02:28.322Z,13.50
2022-12-11T11:04:53.937Z,12.73
2022-12-11T11:07:24.582Z,12.53
2022-12-11T11:09:48.031Z,13.07
2022-12-11T11:12:27.437Z,12.85
2022-12-11T11:15:07.119Z,12.73
2022-12-11T11:17:35.123Z,12.43
2022-12-11T11:20:12.421Z,12.00
2022-12-11T11:22:44.786Z,12.90
2022-12-11T11:25:22.253Z,13.67
2022-12-11T11:27:51.560Z,12.57
2022-12-11T11:30:31.608Z,12.80
2022-12-11T11:33:12.758Z,12.47
2022-12-11T11:35:35.406Z,14.83
2022-12-11T11:38:10.019Z,13.67
2022-12-11T11:40:43.509Z,13.30
2022-12-11T11:43:47.872Z,13.50
2022-12-11T11:46:31.118Z,13.23
2022-12-11T11:49:34.417Z,13.17
2022-12-11T11:52:45.716Z,12.60
2022-12-11T11:55:52.051Z,12.53
2022-12-11T11:58:28.233Z,12.80
2022-12-11T12:00:55.184Z,11.93
2022-12-11T12:03:24.106Z,11.97
2022-12-11T12:06:14.892Z,13.30
2022-12-11T12:09:13.172Z,11.63
2022-12-11T12:11:52.341Z,11.83
2022-12-11T12:15:06.696Z,12.43
2022-12-11T12:17:51.972Z,12.07
2022-12-11T12:21:00.868Z,11.43
2022-12-11T12:23:53.613Z,11.27
2022-12-11T12:26:52.493Z,11.30
2022-12-11T12:29:58.423Z,11.27
2022-12-11T12:35:36.333Z,10.70
2022-12-11T12:38:32.593Z,11.23
2022-12-11T12:41:06.927Z,11.43
2022-12-11T12:44:02.918Z,10.90
2022-12-11T12:46:38.548Z,11.33
2022-12-11T12:49:04.936Z,11.10
2022-12-11T12:51:29.167Z,10.87
2022-12-11T12:54:06.556Z,11.35
2022-12-11T12:56:35.335Z,10.73
2022-12-11T12:58:59.404Z,11.43
2022-12-11T13:01:26.153Z,11.27
2022-12-11T13:04:16.758Z,10.77
2022-12-11T13:06:50.262Z,10.97
2022-12-11T13:09:22.143Z,11.80
2022-12-11T13:11:47.024Z,11.07
2022-12-11T13:14:15.680Z,10.77
2022-12-11T13:16:42.259Z,11.43
2022-12-11T13:19:25.728Z,10.53
2022-12-11T13:22:16.887Z,10.60
2022-12-11T13:25:17.068Z,11.17
2022-12-11T13:27:43.797Z,10.70
2022-12-11T13:30:26.914Z,12.43
2022-12-11T13:33:15.001Z,12.13
2022-12-11T13:35:37.852Z,12.00
2022-12-11T13:38:08.539Z,12.90
2022-12-11T13:40:40.328Z,12.67
2022-12-11T13:43:08.887Z,11.40
2022-12-11T13:45:51.043Z,12.57
2022-12-11T13:48:39.691Z,13.13
2022-12-11T13:51:02.908Z,12.40
2022-12-11T13:53:25.568Z,11.73
2022-12-11T13:55:58.740Z,11.93
2022-12-11T13:58:23.584Z,13.20
2022-12-11T14:01:08.068Z,12.40
2022-12-11T14:03:32.853Z,13.20
2022-12-11T14:05:55.530Z,12.03
2022-12-11T14:08:32.999Z,12.27
2022-12-11T14:10:55.870Z,13.23
2022-12-11T14:13:24.344Z,12.77
2022-12-11T14:15:47.060Z,12.73
2022-12-11T14:18:24.786Z,12.43
2022-12-11T14:20:59.047Z,13.13
2022-12-11T14:23:25.796Z,12.00
2022-12-11T14:26:04.436Z,12.10
2022-12-11T14:28:30.706Z,12.17
2022-12-11T14:30:55.686Z,12.47
2022-12-11T14:33:22.609Z,13.50
2022-12-11T14:35:47.406Z,12.17
2022-12-11T14:38:44.689Z,11.23
2022-12-11T14:41:47.784Z,13.43
2022-12-11T14:44:17.010Z,12.53
2022-12-11T14:46:50.521Z,12.30
2022-12-11T14:49:40.422Z,13.43
2022-12-11T14:52:05.074Z,13.27
2022-12-11T14:54:40.402Z,12.43
2022-12-11T14:57:06.753Z,11.60
2022-12-11T14:59:32.461Z,12.47
2022-12-11T15:02:01.808Z,12.80
2022-12-11T15:04:31.008Z,12.47
2022-12-11T15:06:53.582Z,12.37
2022-12-11T15:09:38.268Z,12.73
2022-12-11T15:12:15.519Z,11.13
2022-12-11T15:14:51.301Z,11.40
2022-12-11T15:17:15.941Z,11.53
2022-12-11T15:19:40.174Z,11.10
2022-12-11T15:22:08.773Z,10.35
2022-12-11T15:24:35.241Z,11.63
2022-12-11T15:27:01.230Z,10.83
2022-12-11T15:29:40.538Z,11.70
2022-12-11T15:32:08.718Z,11.10
2022-12-11T15:34:59.941Z,11.20
2022-12-11T15:37:27.923Z,10.70
2022-12-11T15:39:51.011Z,10.17
2022-12-11T15:42:29.308Z,11.53
2022-12-11T15:44:52.118Z,10.30
2022-12-11T15:47:26.890Z,11.00
2022-12-11T18:37:54.061Z,11.90
